Date,TemperatureHighF,TemperatureAvgF,TemperatureLowF,DewpointHighF,DewpointAvgF,DewpointLowF,HumidityHigh,HumidityAvg,HumidityLow,PressureMaxIn,PressureMinIn,WindSpeedMaxMPH,WindSpeedAvgMPH,GustSpeedMaxMPH,PrecipitationSumIn
2013-1-23,71.2,68.9,61.5,-99.9,-99.9,-99.9,67,54,51,0.00,40.00,0,-999,0,0.00
2013-1-24,72.1,68.6,64.0,-99.9,-99.9,-99.9,62,55,50,0.00,40.00,0,-999,0,0.00
2013-1-25,75.4,68.8,63.3,-99.9,-99.9,-99.9,68,57,49,0.00,40.00,0,-999,0,0.00
2013-1-26,78.3,67.5,61.2,-99.9,-99.9,-99.9,62,53,38,0.00,40.00,0,-999,0,0.00
2013-1-27,76.8,66.9,58.8,-99.9,-99.9,-99.9,52,48,36,0.00,40.00,0,-999,0,0.00
2013-1-28,73.9,67.2,60.8,-99.9,-99.9,-99.9,52,47,41,29.97,40.00,26,-999,0,0.00
2013-1-29,71.8,66.1,60.1,-99.9,-99.9,-99.9,51,49,38,0.00,40.00,0,-999,0,0.00
2013-1-30,72.5,69.2,66.2,-99.9,-99.9,-99.9,55,48,37,0.00,40.00,0,-999,0,0.00
2013-1-31,71.4,67.7,62.2,-99.9,-99.9,-99.9,56,52,45,0.00,40.00,0,-999,0,0.00
2013-2-1,71.2,63.5,55.0,50.9,-44.7,-99.9,80,58,46,30.12,30.03,67,-627,0,0.00
2013-2-2,71.2,58.8,53.1,50.8,48.6,44.7,82,69,46,30.19,30.11,0,0,0,0.07
2013-2-3,75.9,58.0,52.2,51.3,46.2,41.6,82,65,37,30.15,30.03,0,0,0,0.12
2013-2-4,72.9,56.9,51.8,49.9,47.6,44.0,80,71,42,30.08,29.96,0,0,0,0.20
2013-2-5,73.8,58.0,51.4,49.8,47.0,42.9,77,67,42,30.05,29.96,0,0,0,0.64
2013-2-6,80.8,56.3,47.1,48.3,45.4,39.9,86,68,32,30.09,30.02,0,0,0,0.76
2013-2-7,73.9,54.1,47.8,50.0,44.2,37.7,90,70,37,30.07,29.88,0,0,0,1.00
2013-2-8,73.9,55.0,45.0,47.1,41.7,28.2,86,62,36,29.92,29.82,0,0,0,1.21
2013-2-9,69.3,53.6,45.5,41.7,34.0,22.7,73,48,19,29.98,29.88,0,0,0,1.35
2013-2-10,68.5,53.1,45.0,44.1,38.3,31.5,80,58,29,30.02,29.91,0,0,0,1.41
2013-2-11,73.2,55.2,46.4,46.7,38.6,27.4,83,57,22,30.13,29.96,0,0,0,1.45
2013-2-12,70.7,54.7,47.1,47.9,44.7,39.3,85,70,36,30.25,30.12,0,0,0,1.55
2013-2-13,71.1,54.4,46.4,48.9,45.9,39.2,89,74,42,30.24,30.11,0,0,0,1.60
2013-2-14,77.2,58.4,48.4,49.1,45.1,39.6,92,64,28,30.14,30.04,0,0,0,1.65
2013-2-15,78.6,61.8,50.5,47.1,43.1,37.9,78,53,27,30.16,30.09,0,0,0,1.71
2013-2-16,74.5,59.7,52.9,49.7,46.1,43.1,83,62,34,30.12,29.95,0,0,0,1.75
2013-2-17,72.0,55.6,49.6,48.3,45.6,40.6,84,70,41,29.95,29.86,0,0,0,1.78
2013-2-18,66.4,54.3,49.3,46.9,43.2,36.5,85,66,44,29.94,29.86,0,0,0,1.83
2013-2-19,60.1,51.2,46.8,47.3,41.2,32.6,95,69,52,29.87,29.65,0,0,0,2.09
2013-2-20,73.4,53.3,43.7,44.4,39.3,32.7,79,60,31,29.95,29.74,0,0,0,2.30
2013-2-21,72.5,54.9,47.5,44.6,39.4,30.2,79,57,30,30.06,29.94,0,0,0,2.32
2013-2-22,73.4,54.6,46.2,46.2,43.3,36.7,83,67,27,30.15,30.05,0,0,0,2.38
2013-2-23,69.8,56.8,52.3,49.1,40.6,29.9,85,56,29,30.16,30.06,0,0,0,2.43
2013-2-24,72.5,56.2,49.3,44.9,34.1,22.9,83,45,20,30.15,30.06,0,0,0,2.47
2013-2-25,72.0,55.4,47.7,48.0,44.2,39.1,85,67,39,30.16,30.06,0,0,0,2.52
2013-2-26,73.8,55.6,47.3,43.9,38.2,24.9,79,56,22,30.11,30.03,0,0,0,2.57
2013-2-27,73.8,56.6,46.9,48.6,44.3,36.1,80,64,34,30.26,30.09,0,0,0,2.75
2013-2-28,73.0,57.5,50.5,52.2,49.9,46.9,93,76,49,30.35,30.26,0,0,0,2.93
2013-3-1,77.2,60.6,50.5,53.0,49.5,45.8,95,69,38,30.32,30.12,0,0,0,3.03
2013-3-2,71.1,59.7,52.5,51.9,49.9,48.4,90,71,48,30.14,29.97,0,0,0,3.08
2013-3-3,70.9,56.6,51.3,51.2,48.9,45.1,90,76,49,30.00,29.94,0,0,0,3.19
2013-3-4,63.9,54.1,49.3,49.2,45.4,41.7,87,73,52,30.05,29.94,0,0,0,3.27
2013-3-5,63.1,52.2,45.9,49.3,42.8,38.5,99,71,49,29.97,29.73,0,0,0,3.45
2013-3-6,62.2,55.1,48.7,50.5,45.6,40.2,99,71,50,29.96,29.74,0,0,0,3.78
2013-3-7,61.5,53.5,46.8,47.5,44.1,34.5,85,71,41,29.89,29.75,0,0,0,3.90
2013-3-8,65.3,55.4,49.6,47.1,45.0,41.5,82,68,48,29.94,29.72,0,0,0,4.01
2013-3-9,70.2,56.6,47.3,47.1,44.0,38.6,86,64,39,30.20,29.94,0,0,0,4.08
2013-3-10,75.0,57.4,48.0,49.5,45.3,35.8,88,67,34,30.24,30.15,0,0,0,4.11
2013-3-11,75.2,57.8,48.9,50.7,46.6,38.8,89,69,29,30.16,30.00,1,0,0,4.19
2013-3-12,77.7,57.5,48.2,52.2,49.5,46.7,95,77,38,30.06,29.96,0,0,0,4.29
2013-3-13,77.4,58.4,48.0,53.8,50.3,46.4,99,77,41,30.06,29.95,0,0,0,4.41
2013-3-14,68.4,55.9,48.7,52.8,49.3,47.2,95,79,52,30.07,29.97,0,0,0,4.48
2013-3-15,71.4,58.0,50.4,52.2,50.0,46.9,94,76,47,30.03,29.94,0,0,0,4.53
2013-3-16,70.2,57.6,48.7,52.7,49.1,44.6,99,75,47,30.02,29.92,0,0,0,4.61
2013-3-17,70.9,57.1,49.6,48.4,45.3,36.7,85,66,32,30.05,29.94,0,0,0,4.72
2013-3-18,69.1,56.0,48.4,49.9,47.1,44.1,91,73,46,30.03,29.93,0,0,0,4.77
2013-3-19,69.3,56.4,50.2,51.1,46.6,40.5,88,71,40,30.04,29.95,0,0,0,4.84
2013-3-20,63.0,57.2,52.9,57.8,52.5,47.0,94,84,67,30.04,29.95,0,0,0,4.96
2013-3-21,70.0,56.5,47.5,51.2,45.0,39.9,88,67,38,30.03,29.91,0,0,0,4.98
2013-3-22,74.8,57.3,46.6,46.5,39.9,24.9,87,57,23,30.02,29.91,0,0,0,5.02
2013-3-23,73.9,57.6,48.0,46.3,40.2,27.5,84,56,22,30.04,29.94,0,0,0,5.16
2013-3-24,67.6,55.9,48.4,49.5,47.2,45.3,91,74,46,29.99,29.88,0,0,0,5.22
2013-3-25,62.6,54.8,49.1,48.9,46.6,43.7,88,74,53,29.94,29.82,0,0,0,5.27
2013-3-26,67.5,57.7,51.6,50.2,47.7,43.5,86,70,51,29.91,29.84,0,0,0,5.30
2013-3-27,67.6,58.5,51.6,56.6,52.8,48.1,94,81,65,29.91,29.84,0,0,0,5.43
2013-3-28,69.3,61.7,55.4,56.9,55.1,51.2,96,79,59,29.99,29.89,0,0,0,5.45
2013-3-29,82.0,61.7,53.4,56.4,53.3,49.0,98,76,37,29.98,29.91,0,0,0,5.47
2013-3-30,73.6,60.6,53.2,57.9,54.4,47.9,99,81,50,29.97,29.87,0,0,0,5.53
2013-3-31,68.4,59.4,55.6,60.4,55.5,52.6,99,87,59,29.96,29.89,0,0,0,5.81
2013-4-1,73.2,60.3,55.2,58.6,55.3,50.9,99,85,56,30.05,29.94,0,0,0,5.99
2013-4-2,79.5,58.3,52.0,57.2,53.1,50.7,99,84,43,30.09,29.99,0,0,0,6.03
2013-4-3,88.7,57.9,49.5,55.5,52.0,42.9,99,83,32,30.04,29.90,0,0,0,6.07
2013-4-4,68.5,58.3,52.3,60.1,56.6,51.5,99,94,75,30.02,29.88,0,0,0,6.53
2013-4-5,69.3,60.9,55.8,60.0,57.1,53.1,99,88,62,30.09,30.01,0,0,0,6.56
2013-4-6,66.0,58.9,54.0,59.7,56.8,53.4,99,93,75,30.10,30.02,0,0,0,6.62
2013-4-7,67.1,59.2,54.5,59.2,55.5,50.3,99,88,66,30.07,29.75,0,0,0,6.69
2013-4-8,85.6,59.9,52.3,54.0,44.1,31.7,91,58,18,29.92,29.69,0,0,0,6.74
2013-4-9,96.3,67.2,58.3,48.4,40.3,30.3,54,38,15,30.00,29.92,0,0,0,6.84
2013-4-10,109.4,66.7,55.2,55.3,48.7,-99.9,94,59,18,30.07,29.93,0,0,0,6.88
2013-4-11,97.5,61.5,51.4,54.9,49.7,40.2,95,68,23,29.97,29.75,0,0,0,6.94
2013-4-12,91.0,56.7,48.9,53.3,49.7,47.0,99,79,26,29.82,29.74,0,0,0,6.99
2013-4-13,95.0,59.2,50.0,51.7,47.0,41.5,95,67,23,29.80,29.73,0,0,0,0.01
2013-4-14,98.6,58.8,49.3,51.1,42.3,-99.9,90,59,17,29.84,29.76,0,0,0,0.05
2013-4-15,89.1,57.6,48.2,52.4,43.4,36.7,94,62,21,29.86,29.75,12,0,0,0.12
2013-4-16,104.0,58.3,47.8,43.4,38.2,28.7,70,48,25,30.05,29.85,10,0,0,0.07
2013-4-17,103.6,65.2,54.1,47.9,28.4,-99.9,72,36,9,30.17,30.05,12,1,0,0.05
2013-4-18,148.1,66.6,50.9,50.4,32.6,-99.9,88,55,7,30.16,30.08,30,1,0,0.00
2013-4-19,149.9,67.8,50.9,51.9,36.5,-99.9,94,61,10,30.13,29.96,11,1,0,0.01
2013-4-20,149.9,67.6,52.0,51.7,35.1,-99.9,91,62,8,30.01,29.89,21,1,0,0.00
2013-4-21,149.9,67.2,52.5,53.0,32.6,-99.9,87,54,9,29.94,29.82,9,0,0,0.03
2013-4-22,149.9,68.8,56.7,51.9,31.4,-99.9,80,48,8,29.87,29.75,10,1,0,0.04
2013-4-23,148.8,70.4,54.7,51.2,31.5,-99.9,85,52,8,29.84,29.76,32,1,0,0.00
2013-4-24,123.1,64.2,51.6,52.5,37.0,-99.9,91,68,13,29.85,29.73,35,1,0,0.01
2013-4-25,69.1,61.1,55.8,53.9,51.7,48.5,87,72,51,30.04,29.85,12,1,0,0.01
2013-4-26,125.8,68.1,55.9,52.6,30.6,-99.9,84,65,12,30.15,30.03,12,0,0,0.01
2013-10-10,66.9,59.8,56.1,66.7,-3.5,-44.3,99,38,1,29.90,29.81,6,1,0,0.00
2013-10-11,109.0,61.2,53.4,71.9,20.1,-99.9,99,61,1,29.98,29.87,8,0,0,0.08
2013-10-12,108.0,60.3,52.2,71.0,10.4,-99.9,99,51,1,29.90,29.78,22,1,0,0.15
2013-10-13,122.2,64.5,53.2,72.7,12.4,-99.9,99,48,1,29.95,29.81,5,0,0,0.01
2013-10-14,118.8,67.3,54.1,69.9,25.3,-99.9,99,56,1,30.01,29.88,10,0,0,0.01
2013-10-15,122.0,82.5,59.9,67.3,-13.3,-99.9,99,23,1,29.93,29.85,4,1,0,0.01
2013-11-8,77.5,62.2,55.4,58.7,-3.6,-43.2,99,35,1,29.89,29.84,24,0,0,0.00
2013-11-9,113.4,62.4,51.4,61.6,20.5,-99.9,99,62,1,29.93,29.85,10,0,0,0.00
2013-11-10,106.9,61.3,54.5,61.6,29.3,-99.9,99,70,1,30.01,29.91,7,0,0,0.04
2013-11-11,88.7,62.5,55.6,62.1,2.3,-42.0,99,41,1,30.06,29.96,14,0,0,0.04
2013-11-12,79.3,65.0,58.6,60.8,-16.5,-42.2,99,20,1,30.15,30.03,6,0,0,0.03
2013-11-13,109.4,63.1,55.6,65.3,31.5,-99.9,99,73,1,30.14,29.99,5,0,0,0.03
2013-11-14,81.7,59.9,55.0,62.4,16.0,-42.4,99,54,1,30.01,29.76,7,0,0,0.02
2013-11-15,104.2,61.1,52.2,92.6,-2.6,-99.9,99,36,1,29.76,29.62,4,0,0,0.01
2013-11-16,99.1,60.3,50.7,96.0,10.4,-99.9,99,51,1,29.82,29.65,6,0,0,0.00
2013-11-17,84.6,58.9,52.7,58.9,10.5,-44.8,99,48,1,29.98,29.80,7,0,0,0.01
2013-11-18,74.3,57.9,50.5,57.4,13.1,-43.2,99,48,1,30.04,29.96,7,0,0,0.01
2013-11-19,63.5,58.6,54.9,61.4,45.9,-41.1,99,75,1,29.99,29.83,6,0,0,0.53
2013-11-20,64.6,59.8,56.8,64.2,59.6,56.7,99,99,99,29.83,29.72,3,0,0,0.75
2013-11-21,102.6,62.3,54.9,94.6,23.6,-99.9,99,65,1,29.87,29.78,6,1,0,0.01
2013-11-22,113.7,66.4,57.9,93.0,15.4,-99.9,99,65,1,29.91,29.81,18,2,0,0.01